Time;durP1;ratioP1;P1;durP2;ratioP2;P2;SDS_P1;SDS_P2;PMS_P1;PMS_P2;Temp;Humidity;BMP_temperature;BMP_pressure;BME280_temperature;BME280_humidity;BME280_pressure;Samples;Min_cycle;Max_cycle;Signal;HPM_P1;HPM_P2
2022/12/17 13:06:15;;;;;;;33.08;10.85;;;;;;;8.15;85.86;100245.09;1781707;79;22034;-55
2022/12/17 13:09:28;;;;;;;23.30;11.63;;;;;;;8.21;85.98;100228.59;1754397;80;21814;-55
2022/12/17 13:12:43;;;;;;;16.07;9.50;;;;;;;8.23;86.05;100250.61;1771170;80;21439;-55
2022/12/17 13:15:57;;;;;;;22.10;13.88;;;;;;;8.28;86.12;100267.34;1726722;83;21741;-55
2022/12/17 13:19:12;;;;;;;27.55;16.15;;;;;;;8.33;86.30;100274.52;1772346;80;21331;-55
2022/12/17 13:22:24;;;;;;;30.57;15.38;;;;;;;8.40;86.39;100255.63;1716152;80;21199;-55
2022/12/17 13:25:30;;;;;;;44.30;17.90;;;;;;;8.47;86.55;100232.97;1749536;82;21842;-56
2022/12/17 13:28:36;;;;;;;51.50;16.73;;;;;;;8.54;86.63;100234.53;1763371;80;21729;-57
2022/12/17 13:31:51;;;;;;;66.55;18.45;;;;;;;8.57;86.68;100232.83;1764161;81;21520;-56
2022/12/17 13:35:25;;;;;;;57.05;18.55;;;;;;;8.58;86.69;100227.70;1764692;81;21810;-57
2022/12/17 13:38:51;;;;;;;51.42;18.02;;;;;;;8.59;86.70;100213.06;1767443;79;21236;-57
2022/12/17 13:42:00;;;;;;;78.25;19.50;;;;;;;8.63;86.74;100225.33;1795623;79;21777;-57
2022/12/17 13:45:07;;;;;;;70.17;19.30;;;;;;;8.64;86.74;100214.25;1801356;79;21185;-56
2022/12/17 13:48:16;;;;;;;85.35;20.55;;;;;;;8.65;86.71;100200.97;1782290;79;21255;-56
2022/12/17 13:51:28;;;;;;;98.03;21.10;;;;;;;8.67;86.77;100196.70;1801335;79;21172;-56
2022/12/17 13:54:34;;;;;;;60.15;19.45;;;;;;;8.69;86.78;100198.73;1801753;79;21177;-57
2022/12/17 13:57:39;;;;;;;56.20;19.55;;;;;;;8.72;86.82;100192.97;1779343;79;21169;-56
2022/12/17 14:00:46;;;;;;;86.80;21.10;;;;;;;8.74;86.84;100192.27;1802397;79;21200;-56
2022/12/17 14:04:02;;;;;;;62.90;19.70;;;;;;;8.77;86.92;100200.97;1802132;79;21224;-57
2022/12/17 14:07:11;;;;;;;43.42;19.30;;;;;;;8.84;87.01;100204.75;1783106;78;21874;-56
2022/12/17 14:10:23;;;;;;;52.65;21.17;;;;;;;8.88;87.01;100203.88;1764984;80;21189;-56
2022/12/17 14:13:28;;;;;;;46.00;20.48;;;;;;;8.92;87.10;100205.26;1794717;79;21281;-57
2022/12/17 14:16:34;;;;;;;39.73;21.60;;;;;;;8.98;87.24;100201.84;1785135;79;21199;-57
2022/12/17 14:19:43;;;;;;;38.28;20.80;;;;;;;9.04;87.29;100198.42;1776349;79;21204;-57
2022/12/17 14:22:51;;;;;;;38.28;20.23;;;;;;;9.07;87.33;100195.34;1752453;80;21574;-56
2022/12/17 14:25:56;;;;;;;36.80;21.00;;;;;;;9.12;87.42;100197.59;1772810;80;21210;-56
2022/12/17 14:29:03;;;;;;;39.95;21.45;;;;;;;9.20;87.59;100203.06;1775259;79;21256;-56
2022/12/17 14:32:12;;;;;;;38.85;22.00;;;;;;;9.26;87.68;100192.27;1794364;80;21212;-56
2022/12/17 14:35:37;;;;;;;46.90;23.55;;;;;;;9.33;87.76;100189.20;1822079;78;21235;-56
2022/12/17 14:38:42;;;;;;;41.23;22.95;;;;;;;9.39;87.84;100180.31;1811668;79;21223;-56
2022/12/17 14:45:17;;;;;;;40.50;23.10;;;;;;;9.51;87.97;100171.25;1806988;79;21181;-56
2022/12/17 14:48:59;;;;;;;39.70;23.42;;;;;;;9.58;88.10;100166.77;1807270;79;21208;-55
2022/12/17 14:51:38;;;;;;;44.83;22.58;;;;;;;9.67;88.20;100176.14;1792752;78;21733;-55
2022/12/17 14:54:45;;;;;;;36.85;22.10;;;;;;;9.72;88.28;100164.17;1775518;81;21721;-55
2022/12/17 14:57:50;;;;;;;38.05;22.02;;;;;;;9.80;88.34;100168.78;1737979;80;21228;-54
2022/12/17 15:01:10;;;;;;;40.52;21.62;;;;;;;9.83;88.33;100155.59;1775999;81;21197;-55
2022/12/17 15:04:19;;;;;;;39.13;21.95;;;;;;;9.87;88.35;100146.53;1775949;81;21713;-55
2022/12/17 15:07:32;;;;;;;35.90;22.15;;;;;;;9.93;88.51;100139.84;1789405;79;21252;-54
2022/12/17 15:10:38;;;;;;;37.90;21.62;;;;;;;10.00;88.56;100150.42;1798241;79;21405;-55
2022/12/17 15:13:44;;;;;;;34.75;22.48;;;;;;;10.03;88.54;100139.12;1801678;79;21212;-54
2022/12/17 15:16:55;;;;;;;43.28;23.85;;;;;;;10.06;88.57;100125.59;1806135;79;21736;-55
2022/12/17 15:20:01;;;;;;;39.35;23.52;;;;;;;10.10;88.61;100118.78;1775264;79;21201;-55
2022/12/17 15:23:07;;;;;;;34.95;20.35;;;;;;;10.11;88.59;100119.11;1793376;80;21324;-55
2022/12/17 15:26:16;;;;;;;35.75;21.95;;;;;;;10.15;88.60;100104.89;1779636;80;21212;-55
2022/12/17 15:29:23;;;;;;;41.33;22.85;;;;;;;10.20;88.71;100090.66;1766518;80;21327;-56
2022/12/17 15:32:29;;;;;;;40.00;23.30;;;;;;;10.25;88.78;100086.38;1775991;80;21275;-55
2022/12/17 15:35:35;;;;;;;39.92;24.52;;;;;;;10.29;88.82;100086.87;1788140;79;21176;-55
2022/12/17 15:38:42;;;;;;;47.62;23.87;;;;;;;10.32;88.83;100075.56;1776243;80;21366;-55
2022/12/17 15:45:17;;;;;;;45.63;26.12;;;;;;;10.38;88.94;100070.72;1776075;80;21740;-56
2022/12/17 15:48:28;;;;;;;45.05;25.88;;;;;;;10.42;88.99;100077.02;1775447;80;21800;-55
2022/12/17 15:51:34;;;;;;;42.45;24.85;;;;;;;10.45;89.01;100077.15;1752324;80;21256;-55
2022/12/17 15:54:42;;;;;;;40.98;25.60;;;;;;;10.47;88.96;100081.93;1787936;79;21205;-55
2022/12/17 15:57:49;;;;;;;48.30;28.92;;;;;;;10.48;89.00;100073.53;1782029;80;21792;-55
2022/12/17 16:00:54;;;;;;;46.20;25.65;;;;;;;10.51;88.99;100083.28;1777368;80;21220;-56
2022/12/17 16:04:01;;;;;;;48.28;26.20;;;;;;;10.53;89.02;100072.98;1741525;81;21488;-55
2022/12/17 16:07:09;;;;;;;43.10;24.95;;;;;;;10.57;89.09;100086.66;1790451;79;21221;-55
2022/12/17 16:10:18;;;;;;;51.08;28.27;;;;;;;10.60;89.14;100071.23;1751823;81;21342;-55
2022/12/17 16:13:24;;;;;;;57.33;28.57;;;;;;;10.64;89.21;100060.23;1791264;79;21225;-56
2022/12/17 16:16:31;;;;;;;47.65;29.65;;;;;;;10.68;89.22;100059.35;1792597;80;21358;-55
2022/12/17 16:19:37;;;;;;;54.95;29.37;;;;;;;10.71;89.22;100052.14;1785481;80;21185;-56
2022/12/17 16:22:45;;;;;;;49.38;30.40;;;;;;;10.75;89.26;100070.74;1779179;79;21789;-55
2022/12/17 16:25:50;;;;;;;55.95;31.23;;;;;;;10.78;89.31;100063.56;1759067;81;21832;-56
2022/12/17 16:28:55;;;;;;;52.55;30.43;;;;;;;10.82;89.36;100056.66;1742511;81;21217;-55
2022/12/17 16:32:01;;;;;;;59.93;29.48;;;;;;;10.85;89.35;100049.95;1761096;78;21340;-55
2022/12/17 16:35:07;;;;;;;56.02;31.42;;;;;;;10.90;89.39;100048.88;1758919;81;21194;-54
2022/12/17 16:38:14;;;;;;;60.38;32.05;;;;;;;10.93;89.46;100046.63;1758649;81;21260;-54
2022/12/17 16:41:20;;;;;;;52.55;32.10;;;;;;;10.97;89.48;100056.19;1759306;81;21347;-55
2022/12/17 16:44:26;;;;;;;59.35;33.42;;;;;;;10.99;89.50;100046.41;1758749;81;21598;-56
2022/12/17 16:47:33;;;;;;;49.05;31.17;;;;;;;11.02;89.50;100043.30;1759188;81;21225;-56
2022/12/17 16:50:39;;;;;;;52.70;30.00;;;;;;;11.04;89.53;100050.27;1763749;81;21546;-55
2022/12/17 16:53:47;;;;;;;59.50;32.28;;;;;;;11.09;89.55;100049.71;1760599;80;21217;-56
2022/12/17 16:56:53;;;;;;;54.90;30.05;;;;;;;11.11;89.58;100054.49;1760581;81;21264;-56
2022/12/17 16:59:58;;;;;;;51.37;29.80;;;;;;;11.14;89.60;100054.97;1765395;80;21522;-56
2022/12/17 17:03:04;;;;;;;53.92;29.90;;;;;;;11.18;89.63;100036.28;1762228;81;21733;-55
2022/12/17 17:06:15;;;;;;;51.18;30.40;;;;;;;11.21;89.68;100035.90;1762477;81;21335;-55
2022/12/17 17:09:21;;;;;;;46.42;29.80;;;;;;;11.26;89.74;100041.13;1752176;80;21221;-55
2022/12/17 17:12:26;;;;;;;46.48;27.98;;;;;;;11.31;89.80;100025.48;1797648;79;21816;-56
2022/12/17 17:15:31;;;;;;;50.92;28.98;;;;;;;11.34;89.81;100013.63;1799700;79;21260;-55
2022/12/17 17:18:39;;;;;;;54.40;30.72;;;;;;;11.37;89.81;100003.66;1799904;78;21244;-55
2022/12/17 17:21:46;;;;;;;52.40;30.92;;;;;;;11.39;89.82;100011.18;1799028;78;21205;-56
2022/12/17 17:24:53;;;;;;;58.63;31.57;;;;;;;11.41;89.79;100009.11;1793279;79;21879;-56
2022/12/17 17:28:01;;;;;;;48.10;29.77;;;;;;;11.43;89.83;100039.89;1766678;81;21230;-56
2022/12/17 17:31:07;;;;;;;46.68;26.62;;;;;;;11.46;89.85;100033.20;1775129;79;21324;-55
2022/12/17 17:34:19;;;;;;;51.02;31.02;;;;;;;11.48;89.87;100022.91;1767931;80;21603;-56
2022/12/17 17:37:28;;;;;;;49.42;30.68;;;;;;;11.51;89.88;100037.05;1763807;81;21850;-56
2022/12/17 17:40:34;;;;;;;76.65;50.10;;;;;;;11.53;89.89;100049.20;1766479;81;21248;-57
2022/12/17 17:43:43;;;;;;;49.63;31.60;;;;;;;11.55;89.90;100056.20;1766347;81;21359;-56
2022/12/17 17:46:49;;;;;;;54.13;31.33;;;;;;;11.58;89.93;100050.86;1764080;81;21244;-55
2022/12/17 17:49:58;;;;;;;51.65;33.02;;;;;;;11.59;89.94;100058.88;1766227;81;21189;-56
2022/12/17 17:53:07;;;;;;;47.25;29.98;;;;;;;11.61;89.96;100075.14;1755121;81;21718;-57
2022/12/17 17:56:17;;;;;;;44.08;28.73;;;;;;;11.61;89.98;100080.63;1801529;79;21357;-56
2022/12/17 17:59:24;;;;;;;43.68;27.87;;;;;;;11.62;89.98;100074.13;1784447;79;21300;-56
2022/12/17 18:02:31;;;;;;;42.83;27.15;;;;;;;11.62;89.99;100072.75;1761965;80;21195;-56
2022/12/17 18:05:45;;;;;;;54.33;36.13;;;;;;;11.63;90.02;100086.30;1767987;80;21236;-57
2022/12/17 18:08:50;;;;;;;46.08;29.35;;;;;;;11.64;90.01;100092.11;1768543;80;21196;-57
2022/12/17 18:11:55;;;;;;;41.55;27.37;;;;;;;11.65;90.04;100084.73;1768050;81;21247;-57
2022/12/17 18:15:01;;;;;;;43.70;27.48;;;;;;;11.66;90.05;100071.35;1767463;81;21208;-56
2022/12/17 18:18:09;;;;;;;39.92;26.42;;;;;;;11.65;90.05;100069.66;1798229;79;21320;-57
2022/12/17 18:21:18;;;;;;;41.92;26.15;;;;;;;11.65;90.06;100082.00;1799074;79;21182;-57
2022/12/17 18:24:28;;;;;;;37.05;25.27;;;;;;;11.63;90.06;100090.41;1799195;79;21726;-58
2022/12/17 18:27:34;;;;;;;40.00;26.15;;;;;;;11.64;90.04;100103.58;1775517;80;21287;-56
2022/12/17 18:30:44;;;;;;;45.23;26.73;;;;;;;11.64;90.04;100117.29;1774205;79;21213;-56
2022/12/17 18:33:51;;;;;;;39.95;27.58;;;;;;;11.62;90.00;100119.36;1776604;78;21236;-56
2022/12/17 18:36:57;;;;;;;46.23;27.93;;;;;;;11.61;90.01;100108.04;1766333;80;21255;-57
2022/12/17 18:40:03;;;;;;;42.83;27.02;;;;;;;11.59;90.00;100126.59;1796823;79;21165;-57
2022/12/17 18:43:23;;;;;;;40.90;26.25;;;;;;;11.57;89.99;100118.56;1751761;81;21201;-58
2022/12/17 18:46:29;;;;;;;37.90;26.55;;;;;;;11.56;89.99;100106.41;1752151;81;21377;-56
2022/12/17 18:49:36;;;;;;;60.30;40.40;;;;;;;11.53;89.97;100095.80;1786529;80;21855;-57
2022/12/17 18:52:43;;;;;;;41.37;23.83;;;;;;;11.52;89.95;100118.78;1786373;80;21196;-58
2022/12/17 18:55:50;;;;;;;34.92;22.62;;;;;;;11.49;89.92;100131.50;1773501;80;21189;-59
2022/12/17 18:58:57;;;;;;;34.80;22.67;;;;;;;11.47;89.93;100129.45;1786436;80;21922;-59
2022/12/17 19:02:05;;;;;;;36.53;22.20;;;;;;;11.45;89.90;100116.45;1785931;80;21243;-56
2022/12/17 19:05:11;;;;;;;32.75;22.45;;;;;;;11.44;89.90;100123.84;1785920;80;21263;-55
2022/12/17 19:08:17;;;;;;;26.75;20.48;;;;;;;11.42;89.87;100114.08;1786089;80;21255;-56
2022/12/17 19:11:26;;;;;;;33.35;22.75;;;;;;;11.40;89.91;100118.38;1786082;80;21863;-56
2022/12/17 19:14:33;;;;;;;30.80;21.70;;;;;;;11.41;89.92;100128.33;1786539;80;21189;-57
2022/12/17 19:17:42;;;;;;;35.78;22.73;;;;;;;11.41;89.92;100127.47;1786975;80;21382;-56
2022/12/17 19:20:48;;;;;;;34.48;22.50;;;;;;;11.40;89.91;100127.98;1779259;80;21157;-56
2022/12/17 19:23:54;;;;;;;36.55;23.02;;;;;;;11.40;89.89;100125.77;1779346;80;21196;-57
2022/12/17 19:27:02;;;;;;;34.67;23.92;;;;;;;11.37;89.90;100119.30;1767783;80;21197;-56
2022/12/17 19:30:09;;;;;;;37.10;23.35;;;;;;;11.37;89.91;100124.78;1768118;80;21248;-57
2022/12/17 19:33:18;;;;;;;30.70;22.05;;;;;;;11.34;89.91;100122.39;1753581;80;21733;-56
2022/12/17 19:36:26;;;;;;;37.30;23.05;;;;;;;11.32;89.92;100125.31;1810566;78;21762;-56
2022/12/17 19:39:35;;;;;;;35.25;22.32;;;;;;;11.31;89.89;100131.84;1799373;79;21215;-56
2022/12/17 19:42:40;;;;;;;32.38;22.70;;;;;;;11.29;89.89;100133.08;1799190;79;21194;-56
2022/12/17 19:45:46;;;;;;;32.58;21.62;;;;;;;11.26;89.85;100134.80;1799489;79;21179;-55
2022/12/17 19:48:56;;;;;;;37.48;21.65;;;;;;;11.24;89.89;100133.62;1799217;79;21222;-57
2022/12/17 19:52:03;;;;;;;29.18;21.17;;;;;;;11.23;89.89;100131.06;1799155;79;21190;-57
2022/12/17 19:55:08;;;;;;;61.02;38.20;;;;;;;11.22;89.94;100140.33;1781593;79;21328;-57
2022/12/17 19:58:14;;;;;;;39.27;24.98;;;;;;;11.21;89.98;100142.75;1811304;78;21209;-56
2022/12/17 20:01:25;;;;;;;35.70;23.12;;;;;;;11.21;90.02;100150.43;1811427;79;21644;-57
2022/12/17 20:04:30;;;;;;;33.67;21.95;;;;;;;11.20;90.00;100150.11;1799293;79;21195;-57
2022/12/17 20:07:37;;;;;;;34.73;22.80;;;;;;;11.18;90.04;100158.20;1807910;79;21202;-55
2022/12/17 20:10:43;;;;;;;45.40;30.25;;;;;;;11.18;90.08;100170.52;1807988;79;21250;-55
2022/12/17 20:13:53;;;;;;;40.50;23.87;;;;;;;11.16;90.10;100165.20;1799258;79;21206;-55
2022/12/17 20:17:05;;;;;;;34.65;23.47;;;;;;;11.15;90.13;100170.86;1782799;80;21198;-55
2022/12/17 20:20:13;;;;;;;36.25;21.93;;;;;;;11.15;90.12;100180.45;1793190;80;21182;-55
2022/12/17 20:23:19;;;;;;;33.18;21.70;;;;;;;11.12;90.16;100183.56;1797224;79;21206;-56
2022/12/17 20:26:26;;;;;;;28.70;19.15;;;;;;;11.12;90.15;100186.30;1797013;79;21195;-56
2022/12/17 20:29:32;;;;;;;38.08;23.15;;;;;;;11.10;90.18;100188.40;1797094;79;21245;-56
2022/12/17 20:32:38;;;;;;;30.75;20.55;;;;;;;11.08;90.16;100191.83;1797050;79;21325;-55
2022/12/17 20:35:46;;;;;;;34.00;21.25;;;;;;;11.05;90.17;100188.09;1800672;79;21213;-56
2022/12/17 20:38:52;;;;;;;30.57;19.35;;;;;;;11.01;90.19;100194.45;1810030;79;21519;-55
2022/12/17 20:42:00;;;;;;;30.08;18.57;;;;;;;10.98;90.16;100199.44;1809077;79;21200;-56
2022/12/17 20:45:06;;;;;;;24.43;16.12;;;;;;;10.92;90.14;100211.13;1800536;79;21354;-56
2022/12/17 20:48:12;;;;;;;20.60;14.98;;;;;;;10.85;90.09;100212.88;1774056;80;21173;-57
2022/12/17 20:51:22;;;;;;;20.88;15.20;;;;;;;10.75;90.02;100221.32;1775400;80;21185;-56
2022/12/17 20:54:28;;;;;;;28.35;18.85;;;;;;;10.62;89.87;100232.54;1725588;82;21193;-56
2022/12/17 20:57:33;;;;;;;37.88;23.00;;;;;;;10.43;89.64;100227.84;1757875;80;21224;-56
2022/12/17 21:00:40;;;;;;;52.95;28.07;;;;;;;10.24;89.48;100241.11;1772018;81;21177;-56
2022/12/17 21:03:48;;;;;;;59.55;30.48;;;;;;;10.02;89.26;100259.62;1775532;80;21271;-55
2022/12/17 21:06:55;;;;;;;57.27;30.32;;;;;;;9.78;89.15;100270.11;1748209;81;21228;-57
2022/12/17 21:10:01;;;;;;;53.52;30.97;;;;;;;9.55;89.05;100263.63;1771909;80;21190;-56
2022/12/17 21:13:29;;;;;;;53.48;29.67;;;;;;;9.40;89.08;100291.81;1771990;80;21387;-56
2022/12/17 21:16:37;;;;;;;36.23;21.77;;;;;;;9.29;89.13;100307.17;1764618;81;21706;-56
2022/12/17 21:19:43;;;;;;;32.90;20.45;;;;;;;9.11;88.96;100323.70;1751464;80;21296;-56
2022/12/17 21:22:49;;;;;;;23.70;16.65;;;;;;;8.92;88.83;100317.18;1775524;80;21248;-55
2022/12/17 21:26:14;;;;;;;21.35;13.90;;;;;;;8.77;88.76;100336.56;1775736;80;21209;-56
2022/12/17 21:29:20;;;;;;;20.37;14.50;;;;;;;8.66;88.72;100338.23;1776408;80;21181;-57
2022/12/17 21:32:25;;;;;;;17.82;12.35;;;;;;;8.53;88.71;100337.86;1775501;80;21173;-57
2022/12/17 21:35:34;;;;;;;15.43;11.40;;;;;;;8.43;88.72;100353.49;1775781;80;21248;-56
2022/12/17 21:38:39;;;;;;;14.85;11.18;;;;;;;8.29;88.58;100342.66;1753898;80;21224;-55
2022/12/17 21:43:00;;;;;;;13.55;10.70;;;;;;;8.08;88.41;100368.59;1752040;82;21212;-55
2022/12/17 21:44:55;;;;;;;17.07;12.90;;;;;;;7.90;88.32;100375.44;1751228;82;21181;-57
2022/12/17 21:48:01;;;;;;;16.15;11.68;;;;;;;7.75;88.31;100393.89;1752473;82;21256;-55
2022/12/17 21:51:10;;;;;;;13.55;10.32;;;;;;;7.63;88.27;100417.30;1752298;82;21208;-56
2022/12/17 21:54:18;;;;;;;13.13;10.00;;;;;;;7.46;88.10;100427.69;1696423;82;21347;-57
2022/12/17 21:57:25;;;;;;;11.30;8.70;;;;;;;7.24;87.92;100447.69;1735843;82;21241;-55
2022/12/17 22:00:30;;;;;;;10.98;8.73;;;;;;;7.00;87.75;100448.27;1736106;82;21248;-56
2022/12/17 22:03:35;;;;;;;13.53;9.85;;;;;;;6.77;87.67;100438.77;1735855;82;21237;-56
2022/12/17 22:06:42;;;;;;;14.60;10.35;;;;;;;6.62;87.66;100441.64;1735869;82;21201;-56
2022/12/17 22:09:46;;;;;;;13.40;10.28;;;;;;;6.55;87.78;100462.79;1725302;82;21650;-56
2022/12/17 22:16:07;;;;;;;12.45;9.93;;;;;;;6.29;87.67;100463.94;1731882;82;21248;-56
2022/12/17 22:19:16;;;;;;;11.18;9.68;;;;;;;6.18;87.67;100487.20;1711514;82;21221;-56
2022/12/17 22:22:23;;;;;;;11.57;9.15;;;;;;;6.02;87.57;100497.28;1723608;82;21225;-56
2022/12/17 22:25:30;;;;;;;11.40;8.58;;;;;;;5.92;87.68;100492.87;1723009;82;21186;-55
2022/12/17 22:28:36;;;;;;;10.82;9.00;;;;;;;5.87;87.78;100508.24;1731439;82;21225;-56
2022/12/17 22:35:09;;;;;;;11.55;9.70;;;;;;;5.72;87.78;100518.28;1735336;82;21213;-55
2022/12/17 22:38:17;;;;;;;12.85;10.45;;;;;;;5.64;87.79;100516.28;1734634;77;21217;-56
2022/12/17 22:44:51;;;;;;;11.93;10.65;;;;;;;5.51;87.81;100544.69;1785702;80;21192;-55
2022/12/17 22:48:00;;;;;;;12.00;9.90;;;;;;;5.45;87.79;100541.18;1742617;82;21233;-55
2022/12/17 22:51:09;;;;;;;13.13;9.88;;;;;;;5.38;87.87;100539.52;1765159;81;21205;-55
2022/12/17 22:54:15;;;;;;;12.25;9.25;;;;;;;5.34;87.91;100545.36;1750600;81;21236;-55
2022/12/17 22:57:22;;;;;;;14.83;9.55;;;;;;;5.28;87.86;100548.64;1767002;80;21225;-56
2022/12/17 23:00:34;;;;;;;13.95;10.28;;;;;;;5.23;87.86;100569.90;1707781;84;21213;-57
2022/12/17 23:03:40;;;;;;;12.58;8.95;;;;;;;5.13;87.76;100564.44;1713362;84;21207;-55
2022/12/17 23:06:45;;;;;;;12.75;9.65;;;;;;;5.05;87.71;100569.69;1742865;81;21280;-56
2022/12/17 23:09:51;;;;;;;11.28;8.33;;;;;;;4.98;87.72;100567.14;1742974;82;21240;-56
2022/12/17 23:12:59;;;;;;;12.50;9.20;;;;;;;4.90;87.67;100583.75;1765409;81;21193;-56
2022/12/17 23:16:05;;;;;;;12.07;8.93;;;;;;;4.80;87.58;100583.70;1769149;80;21189;-58
2022/12/17 23:19:11;;;;;;;12.70;9.10;;;;;;;4.70;87.53;100600.39;1766232;81;21173;-56
2022/12/17 23:22:17;;;;;;;12.65;9.20;;;;;;;4.59;87.53;100597.27;1766244;81;21914;-57
2022/12/17 23:25:23;;;;;;;13.62;8.75;;;;;;;4.52;87.57;100606.91;1774603;81;21161;-57
2022/12/17 23:28:28;;;;;;;12.98;9.48;;;;;;;4.46;87.57;100605.22;1765956;81;21260;-57
2022/12/17 23:31:39;;;;;;;13.58;9.50;;;;;;;4.42;87.63;100618.69;1774459;81;21331;-55
2022/12/17 23:34:45;;;;;;;13.32;9.60;;;;;;;4.37;87.67;100629.92;1766051;81;21213;-56
2022/12/17 23:37:51;;;;;;;14.18;9.10;;;;;;;4.33;87.69;100640.64;1766143;81;21264;-57
2022/12/17 23:40:57;;;;;;;11.53;8.60;;;;;;;4.27;87.67;100643.87;1765948;80;21232;-56
2022/12/17 23:44:05;;;;;;;14.40;8.55;;;;;;;4.23;87.71;100652.40;1766777;81;21205;-58
2022/12/17 23:47:13;;;;;;;15.93;10.18;;;;;;;4.20;87.76;100658.92;1766491;81;21256;-56
2022/12/17 23:50:19;;;;;;;15.55;10.30;;;;;;;4.17;87.79;100665.95;1773069;81;21256;-57
2022/12/17 23:53:25;;;;;;;15.03;8.80;;;;;;;4.13;87.76;100682.11;1777724;80;21226;-56
2022/12/17 23:56:33;;;;;;;12.40;7.90;;;;;;;4.05;87.72;100664.28;1764572;80;21182;-55
2022/12/17 23:59:39;;;;;;;11.60;8.38;;;;;;;3.98;87.68;100692.84;1777583;81;21251;-56
